sensor_id;sensor_type;location;lat;lon;timestamp;temperature;humidity
7206;DHT22;3644;53.480;10.004;2023-11-19T00:00:10;8.30;99.90
7206;DHT22;3644;53.480;10.004;2023-11-19T00:02:38;8.40;99.90
7206;DHT22;3644;53.480;10.004;2023-11-19T00:05:04;8.50;99.90
7206;DHT22;3644;53.480;10.004;2023-11-19T00:07:30;8.40;99.90
7206;DHT22;3644;53.480;10.004;2023-11-19T00:09:55;8.40;99.90
7206;DHT22;3644;53.480;10.004;2023-11-19T00:12:20;8.50;99.90
7206;DHT22;3644;53.480;10.004;2023-11-19T00:14:46;8.40;99.90
7206;DHT22;3644;53.480;10.004;2023-11-19T00:17:12;8.40;99.90
7206;DHT22;3644;53.480;10.004;2023-11-19T00:19:37;8.50;99.90
7206;DHT22;3644;53.480;10.004;2023-11-19T00:22:03;8.60;99.90
7206;DHT22;3644;53.480;10.004;2023-11-19T00:24:29;8.50;99.90
7206;DHT22;3644;53.480;10.004;2023-11-19T00:26:56;8.70;99.90
7206;DHT22;3644;53.480;10.004;2023-11-19T00:29:21;8.50;99.90
7206;DHT22;3644;53.480;10.004;2023-11-19T00:31:47;8.40;99.90
7206;DHT22;3644;53.480;10.004;2023-11-19T00:34:13;8.60;99.90
7206;DHT22;3644;53.480;10.004;2023-11-19T00:36:39;8.60;99.90
7206;DHT22;3644;53.480;10.004;2023-11-19T00:39:04;8.60;99.90
7206;DHT22;3644;53.480;10.004;2023-11-19T00:41:31;8.70;99.90
7206;DHT22;3644;53.480;10.004;2023-11-19T00:43:56;8.70;99.90
7206;DHT22;3644;53.480;10.004;2023-11-19T00:46:21;8.70;99.90
7206;DHT22;3644;53.480;10.004;2023-11-19T00:48:47;8.90;99.90
7206;DHT22;3644;53.480;10.004;2023-11-19T00:51:13;8.80;99.90
7206;DHT22;3644;53.480;10.004;2023-11-19T00:53:38;8.80;99.90
7206;DHT22;3644;53.480;10.004;2023-11-19T00:56:04;8.90;99.90
7206;DHT22;3644;53.480;10.004;2023-11-19T00:58:30;8.80;99.90
7206;DHT22;3644;53.480;10.004;2023-11-19T01:00:55;8.70;99.90
7206;DHT22;3644;53.480;10.004;2023-11-19T01:03:22;8.70;99.90
7206;DHT22;3644;53.480;10.004;2023-11-19T01:05:48;8.70;99.90
7206;DHT22;3644;53.480;10.004;2023-11-19T01:08:13;8.80;99.90
7206;DHT22;3644;53.480;10.004;2023-11-19T01:10:40;8.80;99.90
7206;DHT22;3644;53.480;10.004;2023-11-19T01:13:05;8.80;99.90
7206;DHT22;3644;53.480;10.004;2023-11-19T01:15:31;8.80;99.90
7206;DHT22;3644;53.480;10.004;2023-11-19T01:17:57;8.60;99.90
7206;DHT22;3644;53.480;10.004;2023-11-19T01:20:22;8.70;99.90
7206;DHT22;3644;53.480;10.004;2023-11-19T01:22:49;8.60;99.90
7206;DHT22;3644;53.480;10.004;2023-11-19T01:25:14;8.60;99.90
7206;DHT22;3644;53.480;10.004;2023-11-19T01:27:40;8.50;99.90
7206;DHT22;3644;53.480;10.004;2023-11-19T01:30:05;8.50;99.90
7206;DHT22;3644;53.480;10.004;2023-11-19T01:32:34;8.60;99.90
7206;DHT22;3644;53.480;10.004;2023-11-19T01:35:00;8.80;99.90
7206;DHT22;3644;53.480;10.004;2023-11-19T01:37:26;8.70;99.90
7206;DHT22;3644;53.480;10.004;2023-11-19T01:39:51;8.70;99.90
7206;DHT22;3644;53.480;10.004;2023-11-19T01:42:17;8.50;99.90
7206;DHT22;3644;53.480;10.004;2023-11-19T01:44:53;8.60;99.90
7206;DHT22;3644;53.480;10.004;2023-11-19T01:47:19;8.60;99.90
7206;DHT22;3644;53.480;10.004;2023-11-19T01:49:45;8.70;99.90
7206;DHT22;3644;53.480;10.004;2023-11-19T01:52:10;8.70;99.90
7206;DHT22;3644;53.480;10.004;2023-11-19T01:54:36;8.70;99.90
7206;DHT22;3644;53.480;10.004;2023-11-19T01:57:02;8.80;99.90
7206;DHT22;3644;53.480;10.004;2023-11-19T01:59:28;8.90;99.90
7206;DHT22;3644;53.480;10.004;2023-11-19T02:01:54;8.80;99.90
7206;DHT22;3644;53.480;10.004;2023-11-19T02:04:20;8.90;99.90
7206;DHT22;3644;53.480;10.004;2023-11-19T02:06:48;8.80;99.90
7206;DHT22;3644;53.480;10.004;2023-11-19T02:09:17;9.00;99.90
7206;DHT22;3644;53.480;10.004;2023-11-19T02:11:45;9.00;99.90
7206;DHT22;3644;53.480;10.004;2023-11-19T02:14:10;9.00;99.90
7206;DHT22;3644;53.480;10.004;2023-11-19T02:16:36;8.90;99.90
7206;DHT22;3644;53.480;10.004;2023-11-19T02:19:01;9.00;99.90
7206;DHT22;3644;53.480;10.004;2023-11-19T02:21:27;8.90;99.90
7206;DHT22;3644;53.480;10.004;2023-11-19T02:23:53;9.10;99.90
7206;DHT22;3644;53.480;10.004;2023-11-19T02:26:26;9.20;99.90
7206;DHT22;3644;53.480;10.004;2023-11-19T02:28:54;9.30;99.90
7206;DHT22;3644;53.480;10.004;2023-11-19T02:31:19;9.20;99.90
7206;DHT22;3644;53.480;10.004;2023-11-19T02:33:45;9.20;99.90
7206;DHT22;3644;53.480;10.004;2023-11-19T02:36:11;9.10;99.90
7206;DHT22;3644;53.480;10.004;2023-11-19T02:38:37;9.10;99.90
7206;DHT22;3644;53.480;10.004;2023-11-19T02:41:06;9.30;99.90
7206;DHT22;3644;53.480;10.004;2023-11-19T02:43:33;9.10;99.90
7206;DHT22;3644;53.480;10.004;2023-11-19T02:46:03;9.20;99.90
7206;DHT22;3644;53.480;10.004;2023-11-19T02:48:33;9.20;99.90
7206;DHT22;3644;53.480;10.004;2023-11-19T02:51:01;9.00;99.90
7206;DHT22;3644;53.480;10.004;2023-11-19T02:53:29;9.00;99.90
7206;DHT22;3644;53.480;10.004;2023-11-19T02:55:54;9.20;99.90
7206;DHT22;3644;53.480;10.004;2023-11-19T02:58:29;9.30;99.90
7206;DHT22;3644;53.480;10.004;2023-11-19T03:00:55;9.30;99.90
7206;DHT22;3644;53.480;10.004;2023-11-19T03:03:25;9.30;99.90
7206;DHT22;3644;53.480;10.004;2023-11-19T03:06:04;9.20;99.90
7206;DHT22;3644;53.480;10.004;2023-11-19T03:08:30;9.20;99.90
7206;DHT22;3644;53.480;10.004;2023-11-19T03:10:56;9.30;99.90
7206;DHT22;3644;53.480;10.004;2023-11-19T03:13:21;9.10;99.90
7206;DHT22;3644;53.480;10.004;2023-11-19T03:15:47;9.00;99.90
7206;DHT22;3644;53.480;10.004;2023-11-19T03:18:13;9.10;99.90
7206;DHT22;3644;53.480;10.004;2023-11-19T03:20:38;9.10;99.90
7206;DHT22;3644;53.480;10.004;2023-11-19T03:23:04;9.10;99.90
7206;DHT22;3644;53.480;10.004;2023-11-19T03:25:30;9.20;99.90
7206;DHT22;3644;53.480;10.004;2023-11-19T03:28:00;9.30;99.90
7206;DHT22;3644;53.480;10.004;2023-11-19T03:30:32;9.30;99.90
7206;DHT22;3644;53.480;10.004;2023-11-19T03:32:58;9.30;99.90
7206;DHT22;3644;53.480;10.004;2023-11-19T03:35:25;9.40;99.90
7206;DHT22;3644;53.480;10.004;2023-11-19T03:37:51;9.40;99.90
7206;DHT22;3644;53.480;10.004;2023-11-19T03:40:17;9.50;99.90
7206;DHT22;3644;53.480;10.004;2023-11-19T03:42:47;9.40;99.90
7206;DHT22;3644;53.480;10.004;2023-11-19T03:45:13;9.60;99.90
7206;DHT22;3644;53.480;10.004;2023-11-19T03:47:39;9.50;99.90
7206;DHT22;3644;53.480;10.004;2023-11-19T03:50:06;9.50;99.90
7206;DHT22;3644;53.480;10.004;2023-11-19T03:52:32;9.60;99.90
7206;DHT22;3644;53.480;10.004;2023-11-19T03:54:58;9.50;99.90
7206;DHT22;3644;53.480;10.004;2023-11-19T03:57:24;9.50;99.90
7206;DHT22;3644;53.480;10.004;2023-11-19T03:59:50;9.70;99.90
7206;DHT22;3644;53.480;10.004;2023-11-19T04:02:16;9.80;99.90
7206;DHT22;3644;53.480;10.004;2023-11-19T04:04:41;9.80;99.90
7206;DHT22;3644;53.480;10.004;2023-11-19T04:07:07;9.80;99.90
7206;DHT22;3644;53.480;10.004;2023-11-19T04:09:33;9.90;99.90
7206;DHT22;3644;53.480;10.004;2023-11-19T04:11:59;9.90;99.90
7206;DHT22;3644;53.480;10.004;2023-11-19T04:14:26;10.00;99.90
7206;DHT22;3644;53.480;10.004;2023-11-19T04:16:51;10.10;99.90
7206;DHT22;3644;53.480;10.004;2023-11-19T04:19:18;10.10;99.90
7206;DHT22;3644;53.480;10.004;2023-11-19T04:21:44;10.10;99.90
7206;DHT22;3644;53.480;10.004;2023-11-19T04:24:11;10.20;99.90
7206;DHT22;3644;53.480;10.004;2023-11-19T04:26:44;10.10;99.90
7206;DHT22;3644;53.480;10.004;2023-11-19T04:29:14;10.10;99.90
7206;DHT22;3644;53.480;10.004;2023-11-19T04:31:40;10.20;99.90
7206;DHT22;3644;53.480;10.004;2023-11-19T04:34:06;10.10;99.90
7206;DHT22;3644;53.480;10.004;2023-11-19T04:36:32;10.10;99.90
7206;DHT22;3644;53.480;10.004;2023-11-19T04:38:59;10.10;99.90
7206;DHT22;3644;53.480;10.004;2023-11-19T04:41:25;10.10;99.90
7206;DHT22;3644;53.480;10.004;2023-11-19T04:43:51;10.10;99.90
7206;DHT22;3644;53.480;10.004;2023-11-19T04:46:16;10.10;99.90
7206;DHT22;3644;53.480;10.004;2023-11-19T04:48:42;10.10;99.90
7206;DHT22;3644;53.480;10.004;2023-11-19T04:51:07;10.10;99.90
7206;DHT22;3644;53.480;10.004;2023-11-19T04:53:35;10.10;99.90
7206;DHT22;3644;53.480;10.004;2023-11-19T04:56:00;10.10;99.90
7206;DHT22;3644;53.480;10.004;2023-11-19T04:58:26;10.10;99.90
7206;DHT22;3644;53.480;10.004;2023-11-19T05:00:54;10.20;99.90
7206;DHT22;3644;53.480;10.004;2023-11-19T05:03:19;10.00;99.90
7206;DHT22;3644;53.480;10.004;2023-11-19T05:05:45;10.20;99.90
7206;DHT22;3644;53.480;10.004;2023-11-19T05:08:10;10.20;99.90
7206;DHT22;3644;53.480;10.004;2023-11-19T05:10:36;10.20;99.90
7206;DHT22;3644;53.480;10.004;2023-11-19T05:13:02;10.30;99.90
7206;DHT22;3644;53.480;10.004;2023-11-19T05:15:27;10.30;99.90
7206;DHT22;3644;53.480;10.004;2023-11-19T05:17:53;10.40;99.90
7206;DHT22;3644;53.480;10.004;2023-11-19T05:20:18;10.40;99.90
7206;DHT22;3644;53.480;10.004;2023-11-19T05:22:44;10.30;99.90
7206;DHT22;3644;53.480;10.004;2023-11-19T05:25:11;10.50;99.90
7206;DHT22;3644;53.480;10.004;2023-11-19T05:27:37;10.70;99.90
7206;DHT22;3644;53.480;10.004;2023-11-19T05:30:04;10.80;99.90
7206;DHT22;3644;53.480;10.004;2023-11-19T05:32:36;10.90;99.90
7206;DHT22;3644;53.480;10.004;2023-11-19T05:35:01;11.00;99.90
7206;DHT22;3644;53.480;10.004;2023-11-19T05:37:27;11.10;99.90
7206;DHT22;3644;53.480;10.004;2023-11-19T05:39:52;11.40;99.90
7206;DHT22;3644;53.480;10.004;2023-11-19T05:42:18;11.50;99.90
7206;DHT22;3644;53.480;10.004;2023-11-19T05:44:44;11.50;99.90
7206;DHT22;3644;53.480;10.004;2023-11-19T05:47:09;11.60;99.90
7206;DHT22;3644;53.480;10.004;2023-11-19T05:49:35;11.70;99.90
7206;DHT22;3644;53.480;10.004;2023-11-19T05:52:00;11.80;99.90
7206;DHT22;3644;53.480;10.004;2023-11-19T05:54:28;11.90;99.90
7206;DHT22;3644;53.480;10.004;2023-11-19T05:56:54;11.80;99.90
7206;DHT22;3644;53.480;10.004;2023-11-19T05:59:20;11.90;99.90
7206;DHT22;3644;53.480;10.004;2023-11-19T06:01:45;12.10;99.90
7206;DHT22;3644;53.480;10.004;2023-11-19T06:04:11;12.10;99.90
7206;DHT22;3644;53.480;10.004;2023-11-19T06:06:37;12.20;99.90
7206;DHT22;3644;53.480;10.004;2023-11-19T06:09:03;12.10;99.90
7206;DHT22;3644;53.480;10.004;2023-11-19T06:11:29;12.10;99.90
7206;DHT22;3644;53.480;10.004;2023-11-19T06:13:55;12.10;99.90
7206;DHT22;3644;53.480;10.004;2023-11-19T06:16:21;12.10;99.90
7206;DHT22;3644;53.480;10.004;2023-11-19T06:18:47;12.20;99.90
7206;DHT22;3644;53.480;10.004;2023-11-19T06:21:12;12.20;99.90
7206;DHT22;3644;53.480;10.004;2023-11-19T06:23:38;12.30;99.90
7206;DHT22;3644;53.480;10.004;2023-11-19T06:26:04;12.40;99.90
7206;DHT22;3644;53.480;10.004;2023-11-19T06:28:30;12.50;99.90
7206;DHT22;3644;53.480;10.004;2023-11-19T06:30:56;12.60;99.90
7206;DHT22;3644;53.480;10.004;2023-11-19T06:33:23;12.50;99.90
7206;DHT22;3644;53.480;10.004;2023-11-19T06:35:49;12.60;99.90
7206;DHT22;3644;53.480;10.004;2023-11-19T06:38:14;12.60;99.90
7206;DHT22;3644;53.480;10.004;2023-11-19T06:40:40;12.70;99.90
7206;DHT22;3644;53.480;10.004;2023-11-19T06:43:06;12.70;99.90
7206;DHT22;3644;53.480;10.004;2023-11-19T06:45:33;12.90;99.90
7206;DHT22;3644;53.480;10.004;2023-11-19T06:48:01;12.70;99.90
7206;DHT22;3644;53.480;10.004;2023-11-19T06:50:28;12.80;99.90
7206;DHT22;3644;53.480;10.004;2023-11-19T06:52:54;12.70;99.90
7206;DHT22;3644;53.480;10.004;2023-11-19T06:55:19;12.80;99.90
7206;DHT22;3644;53.480;10.004;2023-11-19T06:57:45;12.90;99.90
7206;DHT22;3644;53.480;10.004;2023-11-19T07:00:11;12.90;99.90
7206;DHT22;3644;53.480;10.004;2023-11-19T07:02:36;13.10;99.90
7206;DHT22;3644;53.480;10.004;2023-11-19T07:05:02;13.10;99.90
7206;DHT22;3644;53.480;10.004;2023-11-19T07:07:31;13.20;99.90
7206;DHT22;3644;53.480;10.004;2023-11-19T07:09:56;13.10;99.90
7206;DHT22;3644;53.480;10.004;2023-11-19T07:12:22;13.10;99.90
7206;DHT22;3644;53.480;10.004;2023-11-19T07:14:47;13.10;99.90
7206;DHT22;3644;53.480;10.004;2023-11-19T07:17:13;13.20;99.90
7206;DHT22;3644;53.480;10.004;2023-11-19T07:19:39;13.20;99.90
7206;DHT22;3644;53.480;10.004;2023-11-19T07:22:04;13.20;99.90
7206;DHT22;3644;53.480;10.004;2023-11-19T07:24:31;13.10;99.90
7206;DHT22;3644;53.480;10.004;2023-11-19T07:26:57;13.10;99.90
7206;DHT22;3644;53.480;10.004;2023-11-19T07:29:22;13.20;99.90
7206;DHT22;3644;53.480;10.004;2023-11-19T07:31:49;13.20;99.90
7206;DHT22;3644;53.480;10.004;2023-11-19T07:34:14;13.10;99.90
7206;DHT22;3644;53.480;10.004;2023-11-19T07:36:40;13.10;99.90
7206;DHT22;3644;53.480;10.004;2023-11-19T07:39:06;13.10;99.90
7206;DHT22;3644;53.480;10.004;2023-11-19T07:41:31;13.20;99.90
7206;DHT22;3644;53.480;10.004;2023-11-19T07:43:57;13.20;99.90
7206;DHT22;3644;53.480;10.004;2023-11-19T07:46:23;13.20;99.90
7206;DHT22;3644;53.480;10.004;2023-11-19T07:48:48;13.20;99.90
7206;DHT22;3644;53.480;10.004;2023-11-19T07:51:14;13.30;99.90
7206;DHT22;3644;53.480;10.004;2023-11-19T07:53:40;13.30;99.90
7206;DHT22;3644;53.480;10.004;2023-11-19T07:56:07;13.30;99.90
7206;DHT22;3644;53.480;10.004;2023-11-19T07:58:33;13.30;99.90
7206;DHT22;3644;53.480;10.004;2023-11-19T08:00:58;13.30;99.90
7206;DHT22;3644;53.480;10.004;2023-11-19T08:03:24;13.40;99.90
7206;DHT22;3644;53.480;10.004;2023-11-19T08:05:49;13.30;99.90
7206;DHT22;3644;53.480;10.004;2023-11-19T08:08:17;13.40;99.90
7206;DHT22;3644;53.480;10.004;2023-11-19T08:10:43;13.50;99.90
7206;DHT22;3644;53.480;10.004;2023-11-19T08:13:10;13.50;99.90
7206;DHT22;3644;53.480;10.004;2023-11-19T08:15:36;13.40;99.90
7206;DHT22;3644;53.480;10.004;2023-11-19T08:18:01;13.30;99.90
7206;DHT22;3644;53.480;10.004;2023-11-19T08:20:27;13.30;99.90
7206;DHT22;3644;53.480;10.004;2023-11-19T08:22:52;13.50;99.90
7206;DHT22;3644;53.480;10.004;2023-11-19T08:25:18;13.50;99.90
7206;DHT22;3644;53.480;10.004;2023-11-19T08:27:43;13.40;99.90
7206;DHT22;3644;53.480;10.004;2023-11-19T08:30:09;13.50;99.90
7206;DHT22;3644;53.480;10.004;2023-11-19T08:32:35;13.40;99.90
7206;DHT22;3644;53.480;10.004;2023-11-19T08:35:01;13.30;99.90
7206;DHT22;3644;53.480;10.004;2023-11-19T08:37:27;13.40;99.90
7206;DHT22;3644;53.480;10.004;2023-11-19T08:39:52;13.40;99.90
7206;DHT22;3644;53.480;10.004;2023-11-19T08:42:18;13.40;99.90
7206;DHT22;3644;53.480;10.004;2023-11-19T08:44:43;13.40;99.90
7206;DHT22;3644;53.480;10.004;2023-11-19T08:47:12;13.40;99.90
7206;DHT22;3644;53.480;10.004;2023-11-19T08:49:38;13.50;99.90
7206;DHT22;3644;53.480;10.004;2023-11-19T08:52:04;13.80;99.90
7206;DHT22;3644;53.480;10.004;2023-11-19T08:54:30;13.70;99.90
7206;DHT22;3644;53.480;10.004;2023-11-19T08:56:56;13.60;99.90
7206;DHT22;3644;53.480;10.004;2023-11-19T08:59:21;13.70;99.90
7206;DHT22;3644;53.480;10.004;2023-11-19T09:01:47;13.70;99.90
7206;DHT22;3644;53.480;10.004;2023-11-19T09:04:12;13.70;99.90
7206;DHT22;3644;53.480;10.004;2023-11-19T09:06:38;13.60;99.90
7206;DHT22;3644;53.480;10.004;2023-11-19T09:09:03;13.50;99.90
7206;DHT22;3644;53.480;10.004;2023-11-19T09:11:30;13.50;99.90
7206;DHT22;3644;53.480;10.004;2023-11-19T09:13:56;13.60;99.90
7206;DHT22;3644;53.480;10.004;2023-11-19T09:16:22;13.50;99.90
7206;DHT22;3644;53.480;10.004;2023-11-19T09:18:47;13.40;99.90
7206;DHT22;3644;53.480;10.004;2023-11-19T09:21:13;13.50;99.90
7206;DHT22;3644;53.480;10.004;2023-11-19T09:23:38;13.40;99.90
7206;DHT22;3644;53.480;10.004;2023-11-19T09:26:08;13.70;99.90
7206;DHT22;3644;53.480;10.004;2023-11-19T09:28:35;13.70;99.90
7206;DHT22;3644;53.480;10.004;2023-11-19T09:31:01;13.50;99.90
7206;DHT22;3644;53.480;10.004;2023-11-19T09:33:29;13.60;99.90
7206;DHT22;3644;53.480;10.004;2023-11-19T09:35:55;13.60;99.90
7206;DHT22;3644;53.480;10.004;2023-11-19T09:38:20;13.50;99.90
7206;DHT22;3644;53.480;10.004;2023-11-19T09:40:46;13.70;99.90
7206;DHT22;3644;53.480;10.004;2023-11-19T09:43:13;13.70;99.90
7206;DHT22;3644;53.480;10.004;2023-11-19T09:45:48;13.70;99.90
7206;DHT22;3644;53.480;10.004;2023-11-19T09:48:18;13.80;99.90
7206;DHT22;3644;53.480;10.004;2023-11-19T09:50:46;13.80;99.90
7206;DHT22;3644;53.480;10.004;2023-11-19T09:53:12;13.80;99.90
7206;DHT22;3644;53.480;10.004;2023-11-19T09:55:38;13.80;99.90
7206;DHT22;3644;53.480;10.004;2023-11-19T09:58:03;13.80;99.90
7206;DHT22;3644;53.480;10.004;2023-11-19T10:00:30;13.70;99.90
7206;DHT22;3644;53.480;10.004;2023-11-19T10:02:56;13.90;99.90
7206;DHT22;3644;53.480;10.004;2023-11-19T10:05:23;13.90;99.90
7206;DHT22;3644;53.480;10.004;2023-11-19T10:07:50;13.80;99.90
7206;DHT22;3644;53.480;10.004;2023-11-19T10:10:15;14.00;99.90
7206;DHT22;3644;53.480;10.004;2023-11-19T10:12:45;14.00;99.90
7206;DHT22;3644;53.480;10.004;2023-11-19T10:15:19;14.10;99.90
7206;DHT22;3644;53.480;10.004;2023-11-19T10:17:45;14.10;99.90
7206;DHT22;3644;53.480;10.004;2023-11-19T10:20:11;13.80;99.90
7206;DHT22;3644;53.480;10.004;2023-11-19T10:22:37;13.90;99.90
7206;DHT22;3644;53.480;10.004;2023-11-19T10:25:03;14.00;99.90
7206;DHT22;3644;53.480;10.004;2023-11-19T10:27:29;13.80;99.90
7206;DHT22;3644;53.480;10.004;2023-11-19T10:29:59;14.00;99.90
7206;DHT22;3644;53.480;10.004;2023-11-19T10:32:25;14.10;99.90
7206;DHT22;3644;53.480;10.004;2023-11-19T10:34:50;14.10;99.90
7206;DHT22;3644;53.480;10.004;2023-11-19T10:37:33;13.90;99.90
7206;DHT22;3644;53.480;10.004;2023-11-19T10:40:02;13.90;99.90
7206;DHT22;3644;53.480;10.004;2023-11-19T10:42:30;13.90;99.90
7206;DHT22;3644;53.480;10.004;2023-11-19T10:44:56;13.90;99.90
7206;DHT22;3644;53.480;10.004;2023-11-19T10:47:23;13.90;99.90
7206;DHT22;3644;53.480;10.004;2023-11-19T10:49:49;14.10;99.90
7206;DHT22;3644;53.480;10.004;2023-11-19T10:52:18;14.20;99.90
7206;DHT22;3644;53.480;10.004;2023-11-19T10:54:50;14.20;99.90
7206;DHT22;3644;53.480;10.004;2023-11-19T10:57:20;14.20;99.90
7206;DHT22;3644;53.480;10.004;2023-11-19T10:59:47;14.00;99.90
7206;DHT22;3644;53.480;10.004;2023-11-19T11:02:16;13.90;99.90
7206;DHT22;3644;53.480;10.004;2023-11-19T11:04:45;13.90;99.90
7206;DHT22;3644;53.480;10.004;2023-11-19T11:07:13;13.90;99.90
7206;DHT22;3644;53.480;10.004;2023-11-19T11:09:41;13.80;99.90
7206;DHT22;3644;53.480;10.004;2023-11-19T11:12:09;13.90;99.90
7206;DHT22;3644;53.480;10.004;2023-11-19T11:14:37;14.00;99.90
7206;DHT22;3644;53.480;10.004;2023-11-19T11:17:03;13.80;99.90
7206;DHT22;3644;53.480;10.004;2023-11-19T11:19:33;14.00;99.90
7206;DHT22;3644;53.480;10.004;2023-11-19T11:21:59;14.10;99.90
7206;DHT22;3644;53.480;10.004;2023-11-19T11:37:56;14.50;99.90
7206;DHT22;3644;53.480;10.004;2023-11-19T11:40:24;14.50;99.90
7206;DHT22;3644;53.480;10.004;2023-11-19T11:42:51;14.40;99.90
7206;DHT22;3644;53.480;10.004;2023-11-19T11:45:18;14.30;99.90
7206;DHT22;3644;53.480;10.004;2023-11-19T11:50:19;14.20;99.90
7206;DHT22;3644;53.480;10.004;2023-11-19T11:55:27;14.70;99.90
7206;DHT22;3644;53.480;10.004;2023-11-19T11:57:53;14.30;99.90
7206;DHT22;3644;53.480;10.004;2023-11-19T12:00:39;14.30;99.90
7206;DHT22;3644;53.480;10.004;2023-11-19T12:03:06;14.30;99.90
7206;DHT22;3644;53.480;10.004;2023-11-19T12:05:32;14.40;99.90
7206;DHT22;3644;53.480;10.004;2023-11-19T12:08:06;14.50;99.90
7206;DHT22;3644;53.480;10.004;2023-11-19T12:10:43;14.40;99.90
7206;DHT22;3644;53.480;10.004;2023-11-19T12:13:11;14.50;99.90
7206;DHT22;3644;53.480;10.004;2023-11-19T12:18:32;14.40;99.90
7206;DHT22;3644;53.480;10.004;2023-11-19T12:21:01;14.40;99.90
7206;DHT22;3644;53.480;10.004;2023-11-19T12:23:29;14.50;99.90
7206;DHT22;3644;53.480;10.004;2023-11-19T12:25:54;14.50;99.90
7206;DHT22;3644;53.480;10.004;2023-11-19T12:28:20;14.50;99.90
7206;DHT22;3644;53.480;10.004;2023-11-19T12:30:46;14.70;99.90
7206;DHT22;3644;53.480;10.004;2023-11-19T12:33:13;14.90;99.90
7206;DHT22;3644;53.480;10.004;2023-11-19T12:35:42;14.80;99.90
7206;DHT22;3644;53.480;10.004;2023-11-19T12:38:08;15.00;99.90
7206;DHT22;3644;53.480;10.004;2023-11-19T12:40:43;15.00;99.90
7206;DHT22;3644;53.480;10.004;2023-11-19T12:43:08;15.00;99.90
7206;DHT22;3644;53.480;10.004;2023-11-19T12:45:35;15.10;99.90
7206;DHT22;3644;53.480;10.004;2023-11-19T12:48:08;15.20;99.90
7206;DHT22;3644;53.480;10.004;2023-11-19T12:50:51;15.10;99.90
7206;DHT22;3644;53.480;10.004;2023-11-19T12:53:17;14.70;99.90
7206;DHT22;3644;53.480;10.004;2023-11-19T12:55:43;14.70;99.90
7206;DHT22;3644;53.480;10.004;2023-11-19T12:58:09;14.80;99.90
7206;DHT22;3644;53.480;10.004;2023-11-19T13:00:34;14.80;99.90
7206;DHT22;3644;53.480;10.004;2023-11-19T13:03:00;14.70;99.90
7206;DHT22;3644;53.480;10.004;2023-11-19T13:08:03;14.60;99.90
7206;DHT22;3644;53.480;10.004;2023-11-19T13:10:51;14.70;99.90
7206;DHT22;3644;53.480;10.004;2023-11-19T13:13:16;14.80;99.90
7206;DHT22;3644;53.480;10.004;2023-11-19T13:15:43;14.80;99.90
7206;DHT22;3644;53.480;10.004;2023-11-19T13:18:12;15.00;99.90
7206;DHT22;3644;53.480;10.004;2023-11-19T13:20:38;15.00;99.90
7206;DHT22;3644;53.480;10.004;2023-11-19T13:23:05;15.00;99.90
7206;DHT22;3644;53.480;10.004;2023-11-19T13:25:32;15.00;99.90
7206;DHT22;3644;53.480;10.004;2023-11-19T13:27:58;15.00;99.90
7206;DHT22;3644;53.480;10.004;2023-11-19T13:30:24;14.80;99.90
7206;DHT22;3644;53.480;10.004;2023-11-19T13:32:51;14.90;99.90
7206;DHT22;3644;53.480;10.004;2023-11-19T13:35:18;15.00;99.90
7206;DHT22;3644;53.480;10.004;2023-11-19T13:37:44;14.80;99.90
7206;DHT22;3644;53.480;10.004;2023-11-19T13:40:10;14.80;99.90
7206;DHT22;3644;53.480;10.004;2023-11-19T13:42:38;14.70;99.90
7206;DHT22;3644;53.480;10.004;2023-11-19T13:45:11;14.70;99.90
7206;DHT22;3644;53.480;10.004;2023-11-19T13:47:38;14.70;99.90
7206;DHT22;3644;53.480;10.004;2023-11-19T13:50:09;14.80;99.90
7206;DHT22;3644;53.480;10.004;2023-11-19T13:52:37;15.00;99.90
7206;DHT22;3644;53.480;10.004;2023-11-19T13:55:07;15.00;99.90
7206;DHT22;3644;53.480;10.004;2023-11-19T13:57:34;15.10;99.90
7206;DHT22;3644;53.480;10.004;2023-11-19T14:00:01;14.80;99.90
7206;DHT22;3644;53.480;10.004;2023-11-19T14:02:28;14.70;99.90
7206;DHT22;3644;53.480;10.004;2023-11-19T14:04:54;14.70;99.90
7206;DHT22;3644;53.480;10.004;2023-11-19T14:07:20;14.80;99.90
7206;DHT22;3644;53.480;10.004;2023-11-19T14:09:45;14.80;99.90
7206;DHT22;3644;53.480;10.004;2023-11-19T14:12:11;14.50;99.90
7206;DHT22;3644;53.480;10.004;2023-11-19T14:14:38;14.30;99.90
7206;DHT22;3644;53.480;10.004;2023-11-19T14:17:04;14.40;99.90
7206;DHT22;3644;53.480;10.004;2023-11-19T14:19:30;14.50;99.90
7206;DHT22;3644;53.480;10.004;2023-11-19T14:21:56;14.60;99.90
7206;DHT22;3644;53.480;10.004;2023-11-19T14:24:21;14.60;99.90
7206;DHT22;3644;53.480;10.004;2023-11-19T14:26:47;14.70;99.90
7206;DHT22;3644;53.480;10.004;2023-11-19T14:29:14;14.70;99.90
7206;DHT22;3644;53.480;10.004;2023-11-19T14:31:40;14.50;99.90
7206;DHT22;3644;53.480;10.004;2023-11-19T14:34:06;14.50;99.90
7206;DHT22;3644;53.480;10.004;2023-11-19T14:36:31;14.30;99.90
7206;DHT22;3644;53.480;10.004;2023-11-19T14:38:57;14.40;99.90
7206;DHT22;3644;53.480;10.004;2023-11-19T14:41:24;14.60;99.90
7206;DHT22;3644;53.480;10.004;2023-11-19T14:43:49;14.50;99.90
7206;DHT22;3644;53.480;10.004;2023-11-19T14:46:15;14.50;99.90
7206;DHT22;3644;53.480;10.004;2023-11-19T14:48:41;14.50;99.90
7206;DHT22;3644;53.480;10.004;2023-11-19T14:51:06;14.40;99.90
7206;DHT22;3644;53.480;10.004;2023-11-19T14:53:32;14.30;99.90
7206;DHT22;3644;53.480;10.004;2023-11-19T14:55:58;14.00;99.90
7206;DHT22;3644;53.480;10.004;2023-11-19T14:58:23;13.90;99.90
7206;DHT22;3644;53.480;10.004;2023-11-19T15:00:51;13.80;99.90
7206;DHT22;3644;53.480;10.004;2023-11-19T15:03:16;14.00;99.90
7206;DHT22;3644;53.480;10.004;2023-11-19T15:05:45;14.10;99.90
7206;DHT22;3644;53.480;10.004;2023-11-19T15:08:11;14.10;99.90
7206;DHT22;3644;53.480;10.004;2023-11-19T15:10:36;14.20;99.90
7206;DHT22;3644;53.480;10.004;2023-11-19T15:13:03;13.90;99.90
7206;DHT22;3644;53.480;10.004;2023-11-19T15:15:29;13.70;99.90
7206;DHT22;3644;53.480;10.004;2023-11-19T15:17:55;13.50;99.90
7206;DHT22;3644;53.480;10.004;2023-11-19T15:20:20;13.60;99.90
7206;DHT22;3644;53.480;10.004;2023-11-19T15:22:46;13.70;99.90
7206;DHT22;3644;53.480;10.004;2023-11-19T15:25:12;13.40;99.90
7206;DHT22;3644;53.480;10.004;2023-11-19T15:27:38;13.50;99.90
7206;DHT22;3644;53.480;10.004;2023-11-19T15:30:04;13.60;99.90
7206;DHT22;3644;53.480;10.004;2023-11-19T15:32:30;13.80;99.90
7206;DHT22;3644;53.480;10.004;2023-11-19T15:34:57;13.80;99.90
7206;DHT22;3644;53.480;10.004;2023-11-19T15:37:23;13.90;99.90
7206;DHT22;3644;53.480;10.004;2023-11-19T15:39:48;13.80;99.90
7206;DHT22;3644;53.480;10.004;2023-11-19T15:42:16;13.90;99.90
7206;DHT22;3644;53.480;10.004;2023-11-19T15:44:42;14.00;99.90
7206;DHT22;3644;53.480;10.004;2023-11-19T15:47:09;14.00;99.90
7206;DHT22;3644;53.480;10.004;2023-11-19T15:49:34;13.80;99.90
7206;DHT22;3644;53.480;10.004;2023-11-19T15:52:00;13.60;99.90
7206;DHT22;3644;53.480;10.004;2023-11-19T15:54:26;13.60;99.90
7206;DHT22;3644;53.480;10.004;2023-11-19T15:56:51;13.60;99.90
7206;DHT22;3644;53.480;10.004;2023-11-19T15:59:16;13.70;99.90
7206;DHT22;3644;53.480;10.004;2023-11-19T16:01:42;13.60;99.90
7206;DHT22;3644;53.480;10.004;2023-11-19T16:04:08;13.70;99.90
7206;DHT22;3644;53.480;10.004;2023-11-19T16:06:34;13.70;99.90
7206;DHT22;3644;53.480;10.004;2023-11-19T16:09:00;13.70;99.90